Time;durP1;ratioP1;P1;durP2;ratioP2;P2;SDS_P1;SDS_P2;PMS_P1;PMS_P2;Temp;Humidity;BMP_temperature;BMP_pressure;BME280_temperature;BME280_humidity;BME280_pressure;Samples;Min_cycle;Max_cycle;Signal;HPM_P1;HPM_P2
2021/05/30 00:00:08;;;;;;;3.88;3.25;;;11.20;98.80;;;;;;4988241;28;20265;-59
2021/05/30 00:02:34;;;;;;;5.20;3.50;;;11.20;99.00;;;;;;4984978;28;20557;-59
2021/05/30 00:04:59;;;;;;;3.83;3.53;;;11.00;99.20;;;;;;4988390;28;20211;-59
2021/05/30 00:07:25;;;;;;;3.53;3.17;;;11.10;99.30;;;;;;4986764;28;20193;-59
2021/05/30 00:09:54;;;;;;;3.47;2.80;;;11.00;99.00;;;;;;4981819;28;20256;-59
2021/05/30 00:12:21;;;;;;;3.35;3.05;;;11.20;99.20;;;;;;4988605;28;20624;-59
2021/05/30 00:14:47;;;;;;;3.40;3.10;;;11.20;99.50;;;;;;4988146;28;20272;-59
2021/05/30 00:17:14;;;;;;;3.83;3.53;;;11.00;99.80;;;;;;4988423;28;20188;-59
2021/05/30 00:19:40;;;;;;;3.85;3.45;;;10.90;99.90;;;;;;4988141;28;20439;-59
2021/05/30 00:22:05;;;;;;;3.23;3.03;;;11.00;99.90;;;;;;4988268;28;20185;-59
2021/05/30 00:24:31;;;;;;;3.50;3.20;;;11.10;99.90;;;;;;4988120;28;20192;-59
2021/05/30 00:26:57;;;;;;;4.07;3.77;;;10.90;99.90;;;;;;4988229;28;20206;-59
2021/05/30 00:29:23;;;;;;;3.60;3.30;;;10.90;99.70;;;;;;4988058;28;20791;-59
2021/05/30 00:31:48;;;;;;;3.30;3.00;;;11.10;99.90;;;;;;4988032;28;20192;-59
2021/05/30 00:34:14;;;;;;;3.50;3.20;;;11.00;99.90;;;;;;4991357;28;20324;-58
2021/05/30 00:36:40;;;;;;;3.57;3.27;;;10.90;99.90;;;;;;4990949;28;21048;-59
2021/05/30 00:39:06;;;;;;;3.70;3.10;;;10.70;99.90;;;;;;4991322;28;20200;-59
2021/05/30 00:41:32;;;;;;;3.50;3.20;;;10.60;99.90;;;;;;4991368;28;20207;-59
2021/05/30 00:43:57;;;;;;;3.45;3.15;;;10.50;99.90;;;;;;4991199;28;20216;-59
2021/05/30 00:46:24;;;;;;;3.50;3.20;;;10.60;99.90;;;;;;4990962;28;20204;-59
2021/05/30 00:48:50;;;;;;;3.38;3.08;;;10.60;99.90;;;;;;4991159;28;20189;-59
2021/05/30 00:51:16;;;;;;;6.95;4.03;;;10.60;99.90;;;;;;4991405;28;20275;-59
2021/05/30 00:53:43;;;;;;;5.00;3.60;;;10.40;99.90;;;;;;4992105;28;20346;-59
2021/05/30 00:56:18;;;;;;;4.90;3.45;;;10.40;99.90;;;;;;4990710;28;20454;-59
2021/05/30 00:58:44;;;;;;;3.35;2.40;;;10.50;99.90;;;;;;4992405;28;20187;-59
2021/05/30 01:01:10;;;;;;;4.13;2.80;;;10.70;99.90;;;;;;4990878;28;20420;-59
2021/05/30 01:03:37;;;;;;;3.10;2.90;;;10.30;99.90;;;;;;4990788;28;20207;-59
2021/05/30 01:06:04;;;;;;;5.60;3.42;;;10.60;99.90;;;;;;4990789;28;20491;-59
2021/05/30 01:08:30;;;;;;;3.63;3.10;;;10.50;99.90;;;;;;4990912;28;20660;-59
2021/05/30 01:10:58;;;;;;;4.22;3.15;;;10.40;99.90;;;;;;4989025;28;20198;-59
2021/05/30 01:13:25;;;;;;;3.80;3.40;;;10.30;99.90;;;;;;4990370;28;20215;-59
2021/05/30 01:15:52;;;;;;;3.70;3.35;;;10.40;99.90;;;;;;4988828;28;20208;-59
2021/05/30 01:18:22;;;;;;;3.35;3.00;;;10.10;99.90;;;;;;4990764;28;20210;-59
2021/05/30 01:20:50;;;;;;;3.10;2.80;;;10.40;99.90;;;;;;4990439;28;20204;-59
2021/05/30 01:23:18;;;;;;;3.15;2.85;;;10.10;99.90;;;;;;4990514;28;20192;-59
2021/05/30 01:25:44;;;;;;;3.70;3.40;;;10.50;99.90;;;;;;5006380;28;20235;-59
2021/05/30 01:28:10;;;;;;;3.40;3.10;;;10.20;99.90;;;;;;4990461;28;20215;-59
2021/05/30 01:30:36;;;;;;;3.60;3.30;;;10.20;99.90;;;;;;4991086;28;20199;-59
2021/05/30 01:33:03;;;;;;;3.40;3.20;;;10.20;99.90;;;;;;4989989;28;20554;-59
2021/05/30 01:35:29;;;;;;;3.20;2.90;;;10.00;99.90;;;;;;4990520;28;20243;-59
2021/05/30 01:37:55;;;;;;;3.60;3.30;;;10.20;99.90;;;;;;4989788;28;20184;-59
2021/05/30 01:40:22;;;;;;;2.97;2.70;;;10.00;99.90;;;;;;4991613;28;20190;-59
2021/05/30 01:42:49;;;;;;;3.40;3.10;;;10.30;99.90;;;;;;4991555;28;20191;-59
2021/05/30 01:45:17;;;;;;;3.40;3.13;;;10.20;99.90;;;;;;4990391;28;20226;-59
2021/05/30 01:47:44;;;;;;;3.45;3.15;;;10.00;99.90;;;;;;4989723;28;20183;-59
2021/05/30 01:50:18;;;;;;;3.63;2.95;;;10.10;99.90;;;;;;4999857;28;20271;-58
2021/05/30 01:52:44;;;;;;;5.82;3.70;;;9.80;99.90;;;;;;4991111;28;20218;-59
2021/05/30 01:58:03;;;;;;;3.45;3.15;;;9.70;99.90;;;;;;4983046;28;20202;-59
2021/05/30 02:00:29;;;;;;;3.60;3.30;;;9.80;99.90;;;;;;4989919;28;20275;-59
2021/05/30 02:02:56;;;;;;;3.67;3.07;;;10.00;99.90;;;;;;4989307;28;20226;-59
2021/05/30 02:05:23;;;;;;;2.95;2.75;;;9.80;99.90;;;;;;4989463;28;20470;-59
2021/05/30 02:07:50;;;;;;;4.15;3.40;;;9.90;99.90;;;;;;4989434;28;20586;-58
2021/05/30 02:10:17;;;;;;;4.28;2.97;;;9.70;99.90;;;;;;4989500;28;20242;-59
2021/05/30 02:12:47;;;;;;;3.60;3.20;;;9.70;99.90;;;;;;4989002;28;20227;-59
2021/05/30 02:15:13;;;;;;;4.22;2.92;;;9.90;99.90;;;;;;4986551;28;20286;-59
2021/05/30 02:17:39;;;;;;;3.80;3.20;;;9.90;99.90;;;;;;5003689;28;20696;-59
2021/05/30 02:20:07;;;;;;;3.60;3.08;;;9.90;99.90;;;;;;4989463;28;20203;-59
2021/05/30 02:22:33;;;;;;;3.38;3.08;;;9.60;99.90;;;;;;4989434;28;20220;-59
2021/05/30 02:24:59;;;;;;;4.30;2.90;;;9.70;99.90;;;;;;4989198;28;20681;-59
2021/05/30 02:27:25;;;;;;;3.80;3.07;;;9.80;99.90;;;;;;4989071;28;20977;-59
2021/05/30 02:29:51;;;;;;;3.72;3.42;;;9.80;99.90;;;;;;4989264;28;20487;-58
2021/05/30 02:32:16;;;;;;;2.83;2.63;;;9.60;99.90;;;;;;4989171;28;20239;-59
2021/05/30 02:34:43;;;;;;;3.70;3.37;;;9.60;99.90;;;;;;4989035;28;20445;-59
2021/05/30 02:37:12;;;;;;;2.92;2.65;;;9.70;99.90;;;;;;4989332;28;20187;-59
2021/05/30 02:39:38;;;;;;;3.22;2.97;;;9.50;99.90;;;;;;4988388;28;20200;-58
2021/05/30 02:42:04;;;;;;;3.40;3.10;;;9.60;99.90;;;;;;4988943;28;20187;-59
2021/05/30 02:44:30;;;;;;;4.93;3.50;;;9.50;99.90;;;;;;4988491;28;20414;-59
2021/05/30 02:46:56;;;;;;;3.30;3.00;;;9.50;99.90;;;;;;4988689;28;20246;-59
2021/05/30 02:49:22;;;;;;;4.37;3.00;;;9.40;99.90;;;;;;4989389;28;20532;-59
2021/05/30 02:51:48;;;;;;;3.90;3.60;;;9.70;99.90;;;;;;4989162;28;20483;-59
2021/05/30 02:54:13;;;;;;;4.00;3.50;;;9.30;99.90;;;;;;4988509;28;20478;-58
2021/05/30 02:56:40;;;;;;;3.43;3.13;;;9.60;99.90;;;;;;4989901;28;20473;-58
2021/05/30 02:59:05;;;;;;;4.03;3.38;;;9.50;99.90;;;;;;4988763;28;20222;-59
2021/05/30 03:01:31;;;;;;;3.47;3.17;;;9.70;99.90;;;;;;4989246;28;20179;-59
2021/05/30 03:03:57;;;;;;;3.53;3.23;;;9.30;99.90;;;;;;4989331;28;20661;-59
2021/05/30 03:06:24;;;;;;;3.50;3.20;;;9.30;99.90;;;;;;4988881;28;20215;-59
2021/05/30 03:08:51;;;;;;;3.58;3.25;;;9.50;99.90;;;;;;4987896;28;20553;-58
2021/05/30 03:11:17;;;;;;;3.40;3.10;;;9.50;99.90;;;;;;4988722;28;20180;-59
2021/05/30 03:13:43;;;;;;;4.95;3.75;;;9.40;99.90;;;;;;4988732;28;20208;-59
2021/05/30 03:16:08;;;;;;;3.53;3.23;;;9.10;99.90;;;;;;4988813;28;20237;-58
2021/05/30 03:18:34;;;;;;;5.67;3.53;;;9.30;99.90;;;;;;4988672;28;20466;-59
2021/05/30 03:20:59;;;;;;;8.20;3.80;;;9.20;99.90;;;;;;4987337;28;20187;-59
2021/05/30 03:23:25;;;;;;;3.73;3.43;;;9.40;99.90;;;;;;4984761;28;20196;-58
2021/05/30 03:25:51;;;;;;;4.03;3.20;;;9.40;99.90;;;;;;4988691;28;20218;-58
2021/05/30 03:28:16;;;;;;;4.20;2.80;;;9.20;99.90;;;;;;4988279;28;20215;-58
2021/05/30 03:30:42;;;;;;;3.57;3.27;;;9.20;99.90;;;;;;4988482;28;20219;-59
2021/05/30 03:33:08;;;;;;;3.90;3.40;;;9.10;99.90;;;;;;4988782;28;20208;-58
2021/05/30 03:35:33;;;;;;;4.77;3.63;;;9.30;99.90;;;;;;4988654;28;20586;-58
2021/05/30 03:38:01;;;;;;;3.53;3.13;;;9.20;99.90;;;;;;4988645;28;20188;-59
2021/05/30 03:40:33;;;;;;;3.80;3.50;;;9.10;99.90;;;;;;4988866;28;20184;-58
2021/05/30 03:42:59;;;;;;;4.90;3.08;;;9.00;99.90;;;;;;4987971;28;20188;-59
2021/05/30 03:45:25;;;;;;;3.17;2.93;;;9.00;99.90;;;;;;4983979;28;20563;-58
2021/05/30 03:47:52;;;;;;;4.28;3.45;;;9.00;99.90;;;;;;4984629;28;20183;-57
2021/05/30 03:50:18;;;;;;;3.53;3.22;;;9.30;99.90;;;;;;4985020;28;20189;-59
2021/05/30 03:52:44;;;;;;;3.65;3.00;;;9.10;99.90;;;;;;4981645;28;20286;-58
2021/05/30 03:55:11;;;;;;;4.28;3.50;;;9.00;99.90;;;;;;4983076;28;20208;-59
2021/05/30 03:57:37;;;;;;;4.07;3.70;;;9.10;99.90;;;;;;4983160;28;20188;-56
2021/05/30 04:00:12;;;;;;;4.03;3.72;;;9.00;99.90;;;;;;4980123;28;20528;-58
2021/05/30 04:02:38;;;;;;;5.38;3.65;;;9.10;99.90;;;;;;4980802;28;20657;-59
2021/05/30 04:05:04;;;;;;;3.50;3.20;;;9.30;99.90;;;;;;4980822;28;20306;-59
2021/05/30 04:07:32;;;;;;;3.83;3.50;;;8.90;99.90;;;;;;4980641;28;20558;-59
2021/05/30 04:10:02;;;;;;;4.07;3.67;;;9.20;99.90;;;;;;4986126;28;20550;-61
2021/05/30 04:12:29;;;;;;;4.00;3.63;;;9.20;99.90;;;;;;4988997;28;20588;-57
2021/05/30 04:14:55;;;;;;;3.42;3.13;;;9.30;99.90;;;;;;4989716;28;20199;-57
2021/05/30 04:17:20;;;;;;;4.37;3.93;;;9.40;99.90;;;;;;4986877;28;20194;-59
2021/05/30 04:19:46;;;;;;;3.87;3.57;;;9.30;99.90;;;;;;4985885;28;20196;-59
2021/05/30 04:22:11;;;;;;;3.97;3.57;;;9.30;99.90;;;;;;4987204;28;20191;-56
2021/05/30 04:24:37;;;;;;;4.93;3.60;;;9.20;99.90;;;;;;4984068;28;20180;-57
2021/05/30 04:27:03;;;;;;;3.83;3.40;;;9.50;99.90;;;;;;4985958;28;20198;-61
2021/05/30 04:29:28;;;;;;;3.87;3.50;;;9.50;99.90;;;;;;4983517;28;20207;-59
2021/05/30 04:31:54;;;;;;;6.10;3.40;;;9.40;99.90;;;;;;4988253;28;20463;-56
2021/05/30 04:34:20;;;;;;;4.37;3.63;;;9.30;99.90;;;;;;4986678;28;20219;-56
2021/05/30 04:36:45;;;;;;;4.60;4.13;;;9.60;99.90;;;;;;4987838;28;21963;-56
2021/05/30 04:39:11;;;;;;;3.80;3.50;;;9.50;99.90;;;;;;4984410;28;20246;-56
2021/05/30 04:41:36;;;;;;;3.90;3.60;;;9.20;99.90;;;;;;5000138;28;20242;-59
2021/05/30 04:44:02;;;;;;;3.70;3.40;;;9.50;99.90;;;;;;4987710;28;20203;-60
2021/05/30 04:46:28;;;;;;;4.30;3.90;;;9.80;99.90;;;;;;4987488;28;20295;-60
2021/05/30 04:48:53;;;;;;;3.23;3.03;;;9.90;99.90;;;;;;4984626;28;20282;-59
2021/05/30 04:51:19;;;;;;;3.87;3.53;;;9.90;99.90;;;;;;4988132;28;20203;-58
2021/05/30 04:53:46;;;;;;;4.30;3.90;;;10.00;99.90;;;;;;4985916;28;20211;-57
2021/05/30 04:56:17;;;;;;;3.63;3.33;;;10.10;99.90;;;;;;4987183;28;20681;-57
2021/05/30 04:58:44;;;;;;;4.68;3.60;;;10.00;99.90;;;;;;4985124;28;20643;-59
2021/05/30 05:01:09;;;;;;;4.40;4.00;;;10.10;99.90;;;;;;4982286;28;20187;-60
2021/05/30 05:03:35;;;;;;;4.03;3.53;;;10.10;99.90;;;;;;4983530;28;20196;-60
2021/05/30 05:06:01;;;;;;;5.07;3.70;;;10.00;99.90;;;;;;4984847;28;20238;-57
2021/05/30 05:08:26;;;;;;;5.17;4.20;;;10.40;99.90;;;;;;4985214;28;20195;-57
2021/05/30 05:10:53;;;;;;;3.63;3.33;;;10.50;99.90;;;;;;4982687;28;20188;-58
2021/05/30 05:13:20;;;;;;;3.90;3.50;;;10.50;99.90;;;;;;4985219;28;22067;-58
2021/05/30 05:15:50;;;;;;;4.95;3.80;;;10.70;99.90;;;;;;4983752;28;20200;-57
2021/05/30 05:18:20;;;;;;;4.97;3.72;;;10.90;99.90;;;;;;4983322;28;20654;-58
2021/05/30 05:20:47;;;;;;;5.68;4.00;;;10.70;99.90;;;;;;4985006;28;20223;-57
2021/05/30 05:23:14;;;;;;;5.10;3.97;;;10.90;99.90;;;;;;4978802;28;20181;-61
2021/05/30 05:25:40;;;;;;;5.00;4.40;;;11.00;99.90;;;;;;4981600;28;20225;-58
2021/05/30 05:28:06;;;;;;;5.13;4.50;;;10.80;99.90;;;;;;4980999;28;20535;-60
2021/05/30 05:30:32;;;;;;;5.60;5.00;;;11.70;99.90;;;;;;4997648;28;20445;-60
2021/05/30 05:32:59;;;;;;;4.70;4.30;;;11.50;99.90;;;;;;4982147;28;20632;-59
2021/05/30 05:35:26;;;;;;;4.63;4.07;;;11.70;99.90;;;;;;4982600;28;20215;-59
2021/05/30 05:37:58;;;;;;;6.00;5.40;;;12.10;99.90;;;;;;4982076;28;20188;-59
2021/05/30 05:40:26;;;;;;;6.10;5.55;;;12.00;99.90;;;;;;4989117;28;20274;-58
2021/05/30 05:42:52;;;;;;;5.82;5.38;;;12.10;99.90;;;;;;4990625;28;20192;-58
2021/05/30 05:45:19;;;;;;;5.57;5.07;;;12.30;99.80;;;;;;4983043;28;20216;-59
2021/05/30 05:47:45;;;;;;;5.47;4.97;;;12.20;99.30;;;;;;4981744;28;20250;-58
2021/05/30 05:50:15;;;;;;;6.33;5.20;;;12.40;99.60;;;;;;4980941;28;20198;-58
2021/05/30 05:52:41;;;;;;;6.50;4.90;;;12.40;99.20;;;;;;5005979;28;20213;-58
2021/05/30 05:55:08;;;;;;;4.90;4.50;;;12.60;99.00;;;;;;4985781;28;20201;-58
2021/05/30 05:57:35;;;;;;;4.85;4.45;;;12.80;98.70;;;;;;4984343;28;20194;-59
2021/05/30 06:00:02;;;;;;;7.30;4.50;;;12.90;98.10;;;;;;4989527;28;20603;-59
2021/05/30 06:02:28;;;;;;;5.22;4.72;;;12.70;97.70;;;;;;4985813;28;20201;-59
2021/05/30 06:04:55;;;;;;;6.80;4.77;;;13.20;97.00;;;;;;4988525;28;20746;-59
2021/05/30 06:07:22;;;;;;;5.30;4.85;;;13.40;96.70;;;;;;4986254;28;20191;-58
2021/05/30 06:09:47;;;;;;;4.57;4.18;;;13.30;96.50;;;;;;4987366;28;20197;-59
2021/05/30 06:12:13;;;;;;;4.90;4.50;;;13.40;96.70;;;;;;4985827;28;20182;-58
2021/05/30 06:14:38;;;;;;;5.67;5.17;;;13.30;96.50;;;;;;4988074;28;20196;-58
2021/05/30 06:17:04;;;;;;;4.83;4.53;;;13.40;96.50;;;;;;4988867;28;20179;-58
2021/05/30 06:19:31;;;;;;;5.17;4.67;;;13.80;96.20;;;;;;4984947;28;20227;-58
2021/05/30 06:21:56;;;;;;;4.88;4.28;;;13.70;96.30;;;;;;4982320;28;20446;-59
2021/05/30 06:24:22;;;;;;;4.60;4.20;;;13.50;95.70;;;;;;4988386;28;20245;-58
2021/05/30 06:26:47;;;;;;;4.83;4.43;;;13.50;95.80;;;;;;4988740;28;20226;-59
2021/05/30 06:29:13;;;;;;;4.63;4.33;;;13.60;96.10;;;;;;4988238;28;20230;-59
2021/05/30 06:31:39;;;;;;;4.80;4.40;;;14.00;95.30;;;;;;4988884;28;20192;-58
2021/05/30 06:34:04;;;;;;;4.57;4.17;;;13.60;94.50;;;;;;4987267;28;20711;-58
2021/05/30 06:36:30;;;;;;;4.97;4.57;;;13.80;94.60;;;;;;4986298;28;20633;-59
2021/05/30 06:38:56;;;;;;;4.43;4.03;;;14.10;94.70;;;;;;4986426;28;20585;-59
2021/05/30 06:41:22;;;;;;;5.37;4.57;;;14.30;94.20;;;;;;4988401;28;20467;-60
2021/05/30 06:43:51;;;;;;;5.13;4.10;;;14.10;93.70;;;;;;4985408;28;20195;-58
2021/05/30 06:46:16;;;;;;;4.35;3.95;;;14.70;93.40;;;;;;4975834;28;20199;-60
2021/05/30 06:48:42;;;;;;;4.20;3.90;;;14.70;93.00;;;;;;4984124;28;20191;-57
2021/05/30 06:51:12;;;;;;;3.90;3.60;;;15.00;92.60;;;;;;4983040;28;20458;-56
2021/05/30 06:53:38;;;;;;;4.38;3.97;;;15.40;92.00;;;;;;4982373;28;20225;-56
2021/05/30 06:56:04;;;;;;;4.53;4.10;;;15.30;92.00;;;;;;4980468;28;20204;-57
2021/05/30 06:58:29;;;;;;;3.73;3.53;;;15.80;90.60;;;;;;4982495;28;20266;-56
2021/05/30 07:00:55;;;;;;;3.90;3.60;;;16.30;88.80;;;;;;4984260;28;20779;-56
2021/05/30 07:03:20;;;;;;;4.23;3.83;;;17.10;87.20;;;;;;4985644;28;20198;-57
2021/05/30 07:05:46;;;;;;;3.37;3.07;;;19.30;80.50;;;;;;4988705;28;20211;-57
2021/05/30 07:08:12;;;;;;;4.10;3.80;;;21.80;71.30;;;;;;4985873;28;20198;-57
2021/05/30 07:10:37;;;;;;;3.60;3.30;;;24.30;61.80;;;;;;4981414;28;20282;-57
2021/05/30 07:13:03;;;;;;;3.70;3.40;;;26.20;54.60;;;;;;4981501;28;20230;-57
2021/05/30 07:15:29;;;;;;;3.33;3.13;;;27.40;51.40;;;;;;4984560;28;20206;-57
2021/05/30 07:17:56;;;;;;;3.60;3.30;;;27.30;49.00;;;;;;4984629;28;20559;-57
2021/05/30 07:20:22;;;;;;;4.00;3.70;;;27.30;48.70;;;;;;4986769;28;20643;-57
2021/05/30 07:22:47;;;;;;;3.20;3.00;;;26.90;47.60;;;;;;4985965;28;20500;-57
2021/05/30 07:25:13;;;;;;;3.90;3.50;;;28.80;46.20;;;;;;4986984;28;20822;-57
2021/05/30 07:27:39;;;;;;;4.00;3.70;;;28.90;45.20;;;;;;4986414;28;20190;-58
2021/05/30 07:30:07;;;;;;;3.33;3.13;;;30.00;42.90;;;;;;4987220;28;20860;-58
2021/05/30 07:32:33;;;;;;;3.20;3.00;;;31.70;40.70;;;;;;4990079;28;20550;-58
2021/05/30 07:34:59;;;;;;;4.33;3.60;;;31.70;39.40;;;;;;4988261;28;20557;-58
2021/05/30 07:37:24;;;;;;;4.10;3.70;;;32.00;37.90;;;;;;4985228;28;20526;-58
2021/05/30 07:39:50;;;;;;;3.37;3.17;;;31.80;37.60;;;;;;4999104;28;20278;-57
2021/05/30 07:42:16;;;;;;;3.47;3.20;;;31.10;37.40;;;;;;4989073;28;20180;-57
2021/05/30 07:44:42;;;;;;;3.03;2.73;;;32.70;35.70;;;;;;4989422;28;20649;-57
2021/05/30 07:47:07;;;;;;;3.70;3.40;;;32.60;35.80;;;;;;4989828;28;20273;-58
2021/05/30 07:49:33;;;;;;;4.00;3.53;;;32.20;35.10;;;;;;4988614;28;20442;-58
2021/05/30 07:52:00;;;;;;;3.30;3.10;;;33.00;34.10;;;;;;4991239;28;20190;-58
2021/05/30 07:54:26;;;;;;;3.43;3.17;;;33.50;33.40;;;;;;4987103;28;20204;-58
2021/05/30 07:56:52;;;;;;;2.97;2.77;;;33.40;32.30;;;;;;4982023;28;20442;-57
2021/05/30 07:59:19;;;;;;;4.13;3.70;;;33.20;32.10;;;;;;4991047;28;20179;-57
2021/05/30 08:01:44;;;;;;;3.20;3.00;;;32.30;32.80;;;;;;4991407;28;20194;-58
2021/05/30 08:04:10;;;;;;;3.33;3.13;;;32.90;32.60;;;;;;4992047;28;20438;-57
2021/05/30 08:06:36;;;;;;;3.00;2.80;;;32.10;33.00;;;;;;4988054;28;20581;-58
2021/05/30 08:09:02;;;;;;;3.90;3.60;;;32.40;32.40;;;;;;4992151;28;20222;-57
2021/05/30 08:11:28;;;;;;;3.10;2.90;;;31.90;31.90;;;;;;4992054;28;20532;-56
2021/05/30 08:13:54;;;;;;;3.03;2.83;;;30.90;32.50;;;;;;4991920;28;20461;-57
2021/05/30 08:16:21;;;;;;;3.33;3.03;;;30.00;33.00;;;;;;4991631;28;20471;-57
2021/05/30 08:18:47;;;;;;;3.30;3.00;;;29.30;34.90;;;;;;4986655;28;20864;-56
2021/05/30 08:21:13;;;;;;;2.83;2.63;;;29.20;34.60;;;;;;4982759;28;20436;-57
2021/05/30 08:23:41;;;;;;;3.20;2.90;;;29.40;33.20;;;;;;4984336;28;20530;-58
2021/05/30 08:26:09;;;;;;;3.10;2.90;;;29.50;33.00;;;;;;4986571;28;20466;-57
2021/05/30 08:28:35;;;;;;;3.37;2.87;;;30.00;32.50;;;;;;4985371;28;20477;-58
2021/05/30 08:31:01;;;;;;;2.97;2.47;;;30.00;33.00;;;;;;4982712;28;20444;-58
2021/05/30 08:33:28;;;;;;;2.80;2.60;;;28.20;33.80;;;;;;4985897;28;20886;-58
2021/05/30 08:35:53;;;;;;;3.20;2.60;;;29.30;33.80;;;;;;4979419;28;20204;-59
2021/05/30 08:38:20;;;;;;;3.57;3.27;;;28.90;32.20;;;;;;4985664;28;21216;-59
2021/05/30 08:40:47;;;;;;;2.90;2.60;;;28.20;33.20;;;;;;4984096;28;20261;-59
2021/05/30 08:43:15;;;;;;;3.00;2.70;;;28.50;33.00;;;;;;4979072;28;20536;-59
2021/05/30 08:45:41;;;;;;;3.97;2.53;;;29.00;32.10;;;;;;4984704;28;20470;-59
2021/05/30 08:48:07;;;;;;;3.30;3.00;;;29.40;31.50;;;;;;4991696;28;20999;-59
2021/05/30 08:50:33;;;;;;;2.90;2.70;;;29.50;31.90;;;;;;4982313;28;20471;-59
2021/05/30 08:52:58;;;;;;;2.77;2.57;;;29.70;32.20;;;;;;4983612;28;20205;-60
2021/05/30 08:55:24;;;;;;;3.37;2.60;;;30.40;31.50;;;;;;4982913;28;20248;-59
2021/05/30 08:57:50;;;;;;;3.50;2.50;;;30.30;30.70;;;;;;4985102;28;20186;-59
2021/05/30 09:00:27;;;;;;;2.60;2.40;;;29.70;31.30;;;;;;4986240;28;20176;-57
2021/05/30 09:03:10;;;;;;;2.60;2.40;;;29.00;32.60;;;;;;4986560;28;20717;-56
2021/05/30 09:05:36;;;;;;;6.20;2.43;;;28.90;32.60;;;;;;4983362;28;20488;-57
2021/05/30 09:08:02;;;;;;;3.97;2.70;;;29.50;31.40;;;;;;4986365;28;20443;-57
2021/05/30 09:10:29;;;;;;;2.90;2.70;;;30.00;31.20;;;;;;4985142;28;20598;-57
2021/05/30 09:13:14;;;;;;;2.40;2.20;;;30.90;30.60;;;;;;4982111;28;20229;-58
2021/05/30 09:18:21;;;;;;;3.10;2.90;;;30.00;30.80;;;;;;4985796;28;20447;-59
2021/05/30 09:20:58;;;;;;;3.07;2.87;;;29.50;30.20;;;;;;4986490;28;20977;-59
2021/05/30 09:23:37;;;;;;;3.77;2.50;;;28.60;31.70;;;;;;4982836;28;20450;-58
2021/05/30 09:26:19;;;;;;;2.90;2.70;;;27.10;33.40;;;;;;4983906;28;20477;-58
2021/05/30 09:29:08;;;;;;;3.03;2.80;;;26.70;34.60;;;;;;4985191;28;20446;-58
2021/05/30 09:31:35;;;;;;;2.90;2.70;;;25.80;35.60;;;;;;4980649;28;20452;-58
2021/05/30 09:34:23;;;;;;;2.90;2.70;;;24.70;36.90;;;;;;4985462;28;20537;-58
2021/05/30 09:36:52;;;;;;;2.60;2.40;;;25.30;37.40;;;;;;4984010;28;20494;-58
2021/05/30 09:39:36;;;;;;;2.33;2.13;;;26.20;36.10;;;;;;4983981;28;20947;-58
2021/05/30 09:42:25;;;;;;;3.10;2.90;;;26.90;35.20;;;;;;4983788;28;20438;-59
2021/05/30 09:44:57;;;;;;;3.37;2.97;;;25.80;36.20;;;;;;4997254;28;20472;-58
2021/05/30 09:47:41;;;;;;;3.30;3.00;;;25.00;37.30;;;;;;4999280;28;20439;-59
2021/05/30 09:50:18;;;;;;;6.63;2.90;;;24.10;39.30;;;;;;4982705;28;20453;-59
2021/05/30 09:52:51;;;;;;;3.20;2.80;;;23.40;40.40;;;;;;4983223;28;20502;-58
2021/05/30 09:55:18;;;;;;;3.70;3.40;;;23.00;41.70;;;;;;4982088;28;20447;-59
2021/05/30 09:58:16;;;;;;;3.90;3.00;;;22.50;42.40;;;;;;4984389;28;20450;-59
2021/05/30 10:01:00;;;;;;;2.87;2.67;;;23.70;41.60;;;;;;4975009;28;20537;-60
2021/05/30 10:03:27;;;;;;;2.93;2.73;;;24.30;40.40;;;;;;4981204;28;20973;-57
2021/05/30 10:05:53;;;;;;;2.60;2.43;;;25.00;38.80;;;;;;4984718;28;20477;-59
2021/05/30 10:08:20;;;;;;;2.83;2.37;;;24.40;39.40;;;;;;4982011;28;20553;-59
2021/05/30 10:10:46;;;;;;;4.33;2.90;;;24.60;39.20;;;;;;4981149;28;20457;-58
2021/05/30 10:13:14;;;;;;;4.07;3.70;;;25.00;38.70;;;;;;4978863;28;20870;-58
2021/05/30 10:15:40;;;;;;;4.93;3.40;;;24.50;39.00;;;;;;4984789;28;20471;-58
2021/05/30 10:18:27;;;;;;;2.87;2.67;;;24.80;39.00;;;;;;4979607;28;20450;-58
2021/05/30 10:20:55;;;;;;;2.70;2.50;;;25.60;37.40;;;;;;4984272;28;20445;-59
2021/05/30 10:23:22;;;;;;;3.77;2.60;;;27.50;34.70;;;;;;4984540;28;20472;-57
2021/05/30 10:25:48;;;;;;;5.43;2.83;;;28.30;33.80;;;;;;4980934;28;20467;-57
2021/05/30 10:28:19;;;;;;;3.50;3.20;;;27.40;34.50;;;;;;4986238;28;20445;-57
2021/05/30 10:31:34;;;;;;;2.70;2.50;;;27.00;35.60;;;;;;4986677;28;20438;-58
2021/05/30 10:34:09;;;;;;;3.60;3.40;;;26.90;35.30;;;;;;4984547;28;21010;-58
2021/05/30 10:36:44;;;;;;;2.67;2.47;;;25.50;36.30;;;;;;4988916;28;20458;-58
2021/05/30 10:39:28;;;;;;;2.90;2.70;;;25.30;37.80;;;;;;4989106;28;20695;-57
2021/05/30 10:42:15;;;;;;;4.30;2.83;;;25.50;37.60;;;;;;5000341;28;20433;-57
2021/05/30 10:45:14;;;;;;;3.33;3.07;;;26.30;37.00;;;;;;4987897;28;20446;-58
2021/05/30 10:47:43;;;;;;;3.30;3.00;;;26.80;36.10;;;;;;4989352;28;20992;-58
2021/05/30 10:50:17;;;;;;;3.30;3.00;;;27.80;34.80;;;;;;4988465;28;20886;-57
2021/05/30 10:52:44;;;;;;;3.20;2.90;;;27.60;33.80;;;;;;4989457;28;20488;-58
2021/05/30 10:55:16;;;;;;;2.73;2.50;;;28.20;33.60;;;;;;4988969;28;20454;-57
2021/05/30 10:57:44;;;;;;;3.47;3.20;;;28.30;32.30;;;;;;4989453;28;20450;-57
2021/05/30 11:00:33;;;;;;;3.00;2.80;;;28.80;32.30;;;;;;4988805;28;20456;-58
2021/05/30 11:03:02;;;;;;;3.13;2.83;;;29.60;31.60;;;;;;4981529;28;20454;-58
2021/05/30 11:05:47;;;;;;;2.83;2.57;;;29.60;30.20;;;;;;4987837;28;20473;-58
2021/05/30 11:08:31;;;;;;;2.87;2.67;;;28.90;30.80;;;;;;4988781;28;20993;-58
2021/05/30 11:11:15;;;;;;;3.20;2.90;;;28.40;31.80;;;;;;5004415;28;20536;-58
2021/05/30 11:14:01;;;;;;;2.80;2.60;;;27.40;31.70;;;;;;5005156;28;20466;-58
2021/05/30 11:16:33;;;;;;;3.20;3.00;;;28.50;31.40;;;;;;4988429;28;20462;-57
2021/05/30 11:19:05;;;;;;;2.73;2.50;;;28.50;31.20;;;;;;4988790;28;20563;-57
2021/05/30 11:21:42;;;;;;;3.00;2.80;;;27.70;32.30;;;;;;4988706;28;20805;-57
2021/05/30 11:24:13;;;;;;;3.03;2.73;;;27.00;33.10;;;;;;5000323;28;20551;-57
2021/05/30 11:27:04;;;;;;;2.67;2.47;;;26.20;34.10;;;;;;4988884;28;20481;-57
2021/05/30 11:29:30;;;;;;;4.33;2.87;;;26.60;33.90;;;;;;4989339;28;20960;-57
2021/05/30 11:31:59;;;;;;;3.00;2.70;;;25.10;34.90;;;;;;4989004;28;20466;-58
2021/05/30 11:34:32;;;;;;;2.80;2.50;;;25.80;34.20;;;;;;4988787;28;20963;-57
2021/05/30 11:37:11;;;;;;;3.03;2.60;;;26.00;33.70;;;;;;4988809;28;20449;-58
2021/05/30 11:39:42;;;;;;;3.77;2.83;;;25.30;33.90;;;;;;4988434;28;20452;-57
2021/05/30 11:42:08;;;;;;;3.47;2.87;;;24.40;34.50;;;;;;4985333;28;20501;-57
2021/05/30 11:44:34;;;;;;;3.17;2.60;;;23.50;36.20;;;;;;4988587;28;20570;-58
2021/05/30 11:47:03;;;;;;;3.03;2.70;;;23.50;36.20;;;;;;4988634;28;20439;-57
2021/05/30 11:49:34;;;;;;;3.00;2.70;;;23.30;36.70;;;;;;4987849;28;20446;-57
2021/05/30 11:52:02;;;;;;;3.60;3.30;;;23.20;37.40;;;;;;4988689;28;21075;-57
2021/05/30 11:54:32;;;;;;;3.30;3.00;;;22.90;37.60;;;;;;4985114;28;20458;-57
2021/05/30 11:57:04;;;;;;;4.23;3.17;;;22.70;38.00;;;;;;4990268;28;20504;-57
2021/05/30 11:59:33;;;;;;;3.20;2.90;;;22.80;38.10;;;;;;4988474;28;20534;-57
2021/05/30 12:01:59;;;;;;;4.87;2.73;;;22.80;38.20;;;;;;4988960;28;20851;-57
2021/05/30 12:04:34;;;;;;;3.10;2.90;;;22.90;38.50;;;;;;4988638;28;20442;-58
2021/05/30 12:07:00;;;;;;;3.25;2.95;;;22.80;39.20;;;;;;4983725;28;20538;-57
2021/05/30 12:10:04;;;;;;;2.85;2.65;;;22.60;39.50;;;;;;4988563;28;20194;-58
2021/05/30 12:12:38;;;;;;;2.60;2.40;;;22.50;39.40;;;;;;4913610;29;20221;-57
2021/05/30 12:15:07;;;;;;;3.05;2.65;;;22.30;38.00;;;;;;4977598;28;20239;-57
2021/05/30 12:17:38;;;;;;;2.80;2.60;;;22.20;38.60;;;;;;4988256;28;20222;-57
2021/05/30 12:20:06;;;;;;;2.50;2.30;;;22.10;37.50;;;;;;4988099;28;20188;-57
2021/05/30 12:22:32;;;;;;;3.25;2.58;;;22.10;37.30;;;;;;4988537;28;20676;-57
2021/05/30 12:24:58;;;;;;;4.85;2.75;;;22.00;36.80;;;;;;4989444;28;20613;-57
2021/05/30 12:27:26;;;;;;;3.33;2.72;;;21.70;38.20;;;;;;4988613;28;20184;-57
2021/05/30 12:29:53;;;;;;;2.65;2.45;;;21.50;38.70;;;;;;4991150;28;20237;-57
2021/05/30 12:32:21;;;;;;;2.85;2.65;;;21.60;38.80;;;;;;4991656;28;20226;-57
2021/05/30 12:34:47;;;;;;;3.45;2.58;;;21.40;39.00;;;;;;4991916;28;20254;-57
2021/05/30 12:37:13;;;;;;;2.70;2.50;;;21.70;39.30;;;;;;4991822;28;20198;-57
2021/05/30 12:39:39;;;;;;;2.75;2.50;;;21.70;39.30;;;;;;4991644;28;20249;-57
2021/05/30 12:42:10;;;;;;;2.47;2.28;;;21.60;39.10;;;;;;4991800;28;20661;-56
2021/05/30 12:44:51;;;;;;;2.70;2.50;;;21.70;38.60;;;;;;4985903;28;20187;-57
2021/05/30 12:47:23;;;;;;;3.20;2.67;;;21.90;38.90;;;;;;4991647;28;20629;-57
2021/05/30 12:50:00;;;;;;;3.00;2.70;;;21.90;39.20;;;;;;4990548;28;20183;-56
2021/05/30 12:52:27;;;;;;;2.40;2.20;;;21.90;38.70;;;;;;4988564;28;20183;-57
2021/05/30 12:55:08;;;;;;;3.95;2.80;;;21.70;37.80;;;;;;4979225;28;20211;-57
2021/05/30 12:57:48;;;;;;;2.42;2.22;;;21.60;37.40;;;;;;4988729;28;20223;-57
2021/05/30 13:00:35;;;;;;;3.10;2.90;;;21.40;37.90;;;;;;4987294;28;20565;-57